Fort Davis, TX

12:05 PM CST on November 24, 2014 (GMT -0600)
3 Dog Ranch | Change Station
CLOSE
Current Station
Personal Weather Station
Location: Fort Davis, TX
Elevation: 5274 ft
Nearby Weather Stations

Elev 5274 ft 30.61 °N, 103.97 °W | Updated 3 seconds ago

Partly Cloudy
Partly Cloudy
56.8 °F
Feels Like 56.8 °F
N
5.4
Wind Variable Wind from NW
Gusts 5.4 mph

Today
High -- | Low -- °F
--% Chance of Precip.
Yesterday
High -- | Low -- °F
Precip. -- in
7:29 AM 5:55 PM
Waxing Crescent, 6% visible
Pressure 30.18 in
Visibility 10.0 miles
Clouds Clear
Dew Point 12 °F
Humidity 17%
Rainfall 0.00 in
Snow Depth Not available.
UV 5 out of 12
Pollen 5.20 out of 12
Air Quality Not available.
Flu Activity Not available.
METAR KMRF 241755Z AUTO 26014G17KT 10SM CLR 08/M14 A3018 RMK AO1 10080 21060 52007

More Conditions Fewer Conditions

Pressure 30.18 in
Visibility 10.0 miles
Clouds Clear
Dew Point 12 °F
Humidity 17%
Rainfall 0.00 in
Snow Depth Not available.
UV 5 out of 12
Pollen 5.20 out of 12
Air Quality Not available.
Flu Activity Not available.
METAR KMRF 241755Z AUTO 26014G17KT 10SM CLR 08/M14 A3018 RMK AO1 10080 21060 52007

More Conditions Fewer Conditions

10-Day Weather Forecast

Almanac

Astronomy

Nov. 24, 2014 Rise Set
Actual Time
Civil Twilight
Nautical Twilight
Astronomical Twilight
Moon
Length of Visible Light
Length of Day
Tomorrow will be .
, % of the Moon is Illuminated

Today's Extremes

State Highs State Lows

Community

WunderPhotos

Upload Photos

1,773,381 photos uploaded!

WunderBlogs® & News

Nearby

Air Quality

  Air Quality AQ Index Pollutant
Not available.

Snow Depth

Station Depth Elevation

Earthquake Activity

City Distance Mag. Time & Date
Minimum magnitude displayed is 2.5.

Coastal Water Temperatures

Place Temperature

Nearby Weather Stations